To NAV CANADA Home Page Login to a new session Search on AWWS site Disclaimer Vers la page française équivalente Tips FAQ What's new on the site To the Forecasts and Observations / NOTAM section To "File a Flight Plan" website Publications and other links Update of the User's profile FIC Telephone Numbers My Weather Data Folder Route Weather Data Regional Weather Data Local Weather Data To the Forecasts and Observations / NOTAM section
Request Generated 11/16/2018 at 01:15:09 UTC . Weather information available at that time is displayed.

METAR/TAF

PRINCETON/BC    

METAR CYDC 160100Z VRB02KT 15SM SCT018 BKN043 02/M01 A3008 RMK SC4SC3 LAST STFD OBS/NEXT 16 1500UTC SLP209=
METAR CYDC 160000Z 09006KT 15SM FEW015 BKN019 BKN045 BKN160 BKN260 02/M01 A3008 RMK SF2SC4SC1AC1CI1 AC TR CI TR SLP211=
METAR CYDC 152300Z 09004KT 070V140 15SM FEW017 BKN020 BKN050 OVC270 03/M01 A3010 RMK SF1SC5SC2CS1 SF TR DIST SH SW-W SLP215=

CYDC - No TAF is issued for this station

Your time UTC time
Weather data provided by Environment Canada and NAV CANADA